Time;durP1;ratioP1;P1;durP2;ratioP2;P2;SDS_P1;SDS_P2;PMS_P1;PMS_P2;Temp;Humidity;BMP_temperature;BMP_pressure;BME280_temperature;BME280_humidity;BME280_pressure;Samples;Min_cycle;Max_cycle;Signal;HPM_P1;HPM_P2
2022/11/12 00:11:36;;;;;;;;;;;;;;;;;;2208057;54;2388;-74
2022/11/12 00:14:09;;;;;;;;;;;;;;;;;;2190599;59;1937;-73
2022/11/12 00:16:42;;;;;;;;;;;;;;;;;;2191654;59;1220;-73
2022/11/12 00:19:16;;;;;;;;;;;;;;;;;;2191418;67;1260;-73
2022/11/12 00:21:49;;;;;;;;;;;;;;;;;;2191623;60;1306;-73
2022/11/12 10:51:42;;;;;;;;;;;;;;;;;;2336800;59;1735;-72
2022/11/12 10:54:23;;;;;;;;;;;;;;;;;;2191553;59;1938;-73
2022/11/12 10:56:57;;;;;;;;;;;;;;;;;;2193392;59;1730;-72
2022/11/12 10:59:31;;;;;;;;;;;;;;;;;;2194100;59;1311;-72
2022/11/12 11:02:04;;;;;;;;;;;;;;;;;;2189216;59;2169;-73
2022/11/12 11:04:39;;;;;;;;;;;;;;;;;;2190162;67;1126;-72
2022/11/12 11:40:36;;;;;;;;;;;;;;;;;;2146147;61;1927;-79
2022/11/12 14:17:51;;;;;;;;;;;;;;;;;;2387168;54;1744;-72
2022/11/12 14:20:30;;;;;;;;;;;;;;;;;;2382022;62;967;-73
2022/11/12 14:23:05;;;;;;;;;;;;;;;;;;2378873;62;1407;-72
2022/11/12 14:25:47;;;;;;;;;;;;;;;;;;2383609;54;896;-72
2022/11/12 14:28:27;;;;;;;;;;;;;;;;;;2383060;54;1121;-72
2022/11/12 14:51:13;;;;;;;;;;;;;;;;;;2394903;54;1923;-72
2022/11/12 14:53:49;;;;;;;;;;;;;;;;;;2390176;62;946;-72
2022/11/12 14:56:25;;;;;;;;;;;;;;;;;;2391250;54;1177;-72
2022/11/12 14:58:58;;;;;;;;;;;;;;;;;;2391737;62;1049;-72
2022/11/12 15:01:33;;;;;;;;;;;;;;;;;;2390236;62;1145;-72
2022/11/12 15:04:17;;;;;;;;;;;;;;;;;;2389906;62;1029;-72
2022/11/12 17:12:37;;;;;;;;;;;;;;;;;;2379955;54;653;-72
2022/11/12 17:15:10;;;;;;;;;;;;;;;;;;2382276;62;1011;-72
2022/11/12 17:17:43;;;;;;;;;;;;;;;;;;2382097;54;1017;-72
2022/11/12 17:20:17;;;;;;;;;;;;;;;;;;2383348;62;1237;-73
2022/11/12 17:22:50;;;;;;;;;;;;;;;;;;2383679;54;1029;-72
2022/11/12 17:25:23;;;;;;;;;;;;;;;;;;2383573;62;1020;-72
2022/11/12 17:27:59;;;;;;;;;;;;;;;;;;2382944;62;923;-72
2022/11/12 17:30:32;;;;;;;;;;;;;;;;;;2383171;62;1972;-72
2022/11/12 17:33:05;;;;;;;;;;;;;;;;;;2383423;54;1066;-72
2022/11/12 17:35:38;;;;;;;;;;;;;;;;;;2382452;62;1026;-72
2022/11/12 17:38:11;;;;;;;;;;;;;;;;;;2383488;62;1033;-73
2022/11/12 17:40:44;;;;;;;;;;;;;;;;;;2382068;62;1209;-73
2022/11/12 17:43:20;;;;;;;;;;;;;;;;;;2382889;62;1020;-72
2022/11/12 17:45:54;;;;;;;;;;;;;;;;;;2383380;62;959;-72
2022/11/12 17:48:28;;;;;;;;;;;;;;;;;;2383457;62;1211;-72
2022/11/12 17:51:08;;;;;;;;;;;;;;;;;;2383494;62;1916;-73
2022/11/12 17:53:42;;;;;;;;;;;;;;;;;;2383414;54;1235;-72
2022/11/12 17:56:16;;;;;;;;;;;;;;;;;;2383297;62;1021;-73
2022/11/12 17:58:53;;;;;;;;;;;;;;;;;;2383183;62;950;-72
2022/11/12 18:01:27;;;;;;;;;;;;;;;;;;2383061;62;1206;-72
2022/11/12 18:04:00;;;;;;;;;;;;;;;;;;2383546;62;1019;-72
2022/11/12 18:06:34;;;;;;;;;;;;;;;;;;2382375;62;1003;-72
2022/11/12 18:09:08;;;;;;;;;;;;;;;;;;2383094;54;1056;-72
2022/11/12 18:11:43;;;;;;;;;;;;;;;;;;2380413;62;1923;-72
2022/11/12 18:14:21;;;;;;;;;;;;;;;;;;2379214;62;1027;-72
2022/11/12 18:16:55;;;;;;;;;;;;;;;;;;2378993;62;1134;-72
2022/11/12 18:19:29;;;;;;;;;;;;;;;;;;2378837;62;1062;-72
2022/11/12 18:22:02;;;;;;;;;;;;;;;;;;2378930;62;1229;-72
2022/11/12 18:24:35;;;;;;;;;;;;;;;;;;2379146;54;1043;-72
2022/11/12 18:27:08;;;;;;;;;;;;;;;;;;2378996;62;1025;-72
2022/11/12 18:29:45;;;;;;;;;;;;;;;;;;2377412;62;1919;-72
2022/11/12 18:32:18;;;;;;;;;;;;;;;;;;2378714;62;1247;-72
2022/11/12 18:34:52;;;;;;;;;;;;;;;;;;2378107;54;953;-73
2022/11/12 18:37:25;;;;;;;;;;;;;;;;;;2378852;62;1043;-72
2022/11/12 18:39:58;;;;;;;;;;;;;;;;;;2378458;62;896;-72
2022/11/12 18:42:31;;;;;;;;;;;;;;;;;;2378728;54;853;-72
2022/11/12 18:45:07;;;;;;;;;;;;;;;;;;2378919;54;1071;-73
2022/11/12 18:47:41;;;;;;;;;;;;;;;;;;2376280;54;1196;-73
2022/11/12 18:50:14;;;;;;;;;;;;;;;;;;2378846;62;1935;-73
2022/11/12 18:52:47;;;;;;;;;;;;;;;;;;2378838;62;1035;-73
2022/11/12 18:55:20;;;;;;;;;;;;;;;;;;2379067;62;1039;-73
2022/11/12 18:57:53;;;;;;;;;;;;;;;;;;2379041;55;920;-73
2022/11/12 19:00:29;;;;;;;;;;;;;;;;;;2378744;54;1227;-72
2022/11/12 19:03:02;;;;;;;;;;;;;;;;;;2379229;62;1059;-73
2022/11/12 19:05:36;;;;;;;;;;;;;;;;;;2377301;62;1030;-72
2022/11/12 19:08:09;;;;;;;;;;;;;;;;;;2375532;62;1059;-72
2022/11/12 19:10:42;;;;;;;;;;;;;;;;;;2377879;54;1923;-72
2022/11/12 19:13:15;;;;;;;;;;;;;;;;;;2378420;62;1038;-72
2022/11/12 19:15:51;;;;;;;;;;;;;;;;;;2378170;62;987;-72
2022/11/12 19:18:24;;;;;;;;;;;;;;;;;;2377789;54;884;-72
2022/11/12 19:21:01;;;;;;;;;;;;;;;;;;2378543;62;1236;-72
2022/11/12 19:23:34;;;;;;;;;;;;;;;;;;2378467;62;1011;-72
2022/11/12 19:26:08;;;;;;;;;;;;;;;;;;2364761;62;991;-72
2022/11/12 19:28:42;;;;;;;;;;;;;;;;;;2378060;55;1034;-72
2022/11/12 19:31:19;;;;;;;;;;;;;;;;;;2377230;54;1928;-72
2022/11/12 19:33:52;;;;;;;;;;;;;;;;;;2378517;62;951;-72
2022/11/12 19:36:27;;;;;;;;;;;;;;;;;;2378112;62;945;-73
2022/11/12 19:39:01;;;;;;;;;;;;;;;;;;2378107;54;1031;-72
2022/11/12 19:41:34;;;;;;;;;;;;;;;;;;2373982;62;1273;-72
2022/11/12 19:44:08;;;;;;;;;;;;;;;;;;2378244;55;1027;-72
2022/11/12 19:46:43;;;;;;;;;;;;;;;;;;2378110;62;955;-72
2022/11/12 19:49:17;;;;;;;;;;;;;;;;;;2377860;62;1020;-72
2022/11/12 19:51:50;;;;;;;;;;;;;;;;;;2378303;62;1936;-72
2022/11/12 19:54:23;;;;;;;;;;;;;;;;;;2378502;62;1019;-72
2022/11/12 19:56:56;;;;;;;;;;;;;;;;;;2378577;62;972;-72
2022/11/12 19:59:29;;;;;;;;;;;;;;;;;;2378487;62;1026;-72
2022/11/12 20:02:05;;;;;;;;;;;;;;;;;;2378424;54;1244;-72
2022/11/12 20:04:38;;;;;;;;;;;;;;;;;;2378433;62;1046;-72
2022/11/12 20:07:12;;;;;;;;;;;;;;;;;;2378198;54;1024;-72
2022/11/12 20:09:45;;;;;;;;;;;;;;;;;;2378443;62;944;-72
2022/11/12 20:12:19;;;;;;;;;;;;;;;;;;2378466;54;1921;-72
2022/11/12 20:14:52;;;;;;;;;;;;;;;;;;2378831;54;939;-72
2022/11/12 20:17:28;;;;;;;;;;;;;;;;;;2378629;62;1039;-72
2022/11/12 20:20:01;;;;;;;;;;;;;;;;;;2377770;62;1141;-72
2022/11/12 20:22:35;;;;;;;;;;;;;;;;;;2378433;62;1036;-72
2022/11/12 20:25:08;;;;;;;;;;;;;;;;;;2378186;62;1057;-72
2022/11/12 20:27:42;;;;;;;;;;;;;;;;;;2378097;62;1035;-72
2022/11/12 20:30:15;;;;;;;;;;;;;;;;;;2374066;62;2059;-72
2022/11/12 20:32:51;;;;;;;;;;;;;;;;;;2378152;62;1059;-72
2022/11/12 20:35:24;;;;;;;;;;;;;;;;;;2378242;62;1027;-72
2022/11/12 20:37:58;;;;;;;;;;;;;;;;;;2373805;62;948;-72
2022/11/12 20:40:32;;;;;;;;;;;;;;;;;;2378157;62;1222;-72
2022/11/12 20:43:05;;;;;;;;;;;;;;;;;;2378607;62;972;-72
2022/11/12 20:45:38;;;;;;;;;;;;;;;;;;2378557;62;1081;-72
2022/11/12 20:48:15;;;;;;;;;;;;;;;;;;2378529;54;849;-73
2022/11/12 20:50:48;;;;;;;;;;;;;;;;;;2378180;62;1919;-72
2022/11/12 20:53:21;;;;;;;;;;;;;;;;;;2378762;62;979;-72
2022/11/12 20:55:54;;;;;;;;;;;;;;;;;;2378499;62;1059;-72
2022/11/12 20:58:30;;;;;;;;;;;;;;;;;;2378072;62;1020;-72
2022/11/12 21:01:03;;;;;;;;;;;;;;;;;;2378380;62;1234;-72
2022/11/12 21:03:41;;;;;;;;;;;;;;;;;;2378664;62;938;-72
2022/11/12 21:06:15;;;;;;;;;;;;;;;;;;2378555;54;1020;-73
2022/11/12 21:08:48;;;;;;;;;;;;;;;;;;2378448;62;1035;-72
2022/11/12 21:11:22;;;;;;;;;;;;;;;;;;2377986;54;1988;-74
2022/11/12 21:13:55;;;;;;;;;;;;;;;;;;2382898;62;888;-72
2022/11/12 21:16:28;;;;;;;;;;;;;;;;;;2382850;62;1022;-72
2022/11/12 21:19:05;;;;;;;;;;;;;;;;;;2382895;62;903;-72
2022/11/12 21:21:38;;;;;;;;;;;;;;;;;;2383181;62;1180;-72
2022/11/12 21:24:12;;;;;;;;;;;;;;;;;;2382924;62;938;-74
2022/11/12 21:26:45;;;;;;;;;;;;;;;;;;2382763;54;1047;-72
2022/11/12 21:29:18;;;;;;;;;;;;;;;;;;2382901;55;1053;-72
2022/11/12 21:31:51;;;;;;;;;;;;;;;;;;2382526;62;1916;-72
2022/11/12 21:34:27;;;;;;;;;;;;;;;;;;2383012;62;1213;-73
2022/11/12 21:37:01;;;;;;;;;;;;;;;;;;2382920;62;979;-72
2022/11/12 21:39:35;;;;;;;;;;;;;;;;;;2382914;55;1193;-72
2022/11/12 21:42:08;;;;;;;;;;;;;;;;;;2382986;54;1282;-72
2022/11/12 21:44:41;;;;;;;;;;;;;;;;;;2383258;62;976;-72
2022/11/12 21:47:14;;;;;;;;;;;;;;;;;;2382947;55;1022;-72
2022/11/12 21:49:50;;;;;;;;;;;;;;;;;;2382699;62;963;-75
2022/11/12 21:52:23;;;;;;;;;;;;;;;;;;2383003;62;1975;-72
2022/11/12 21:54:56;;;;;;;;;;;;;;;;;;2382950;62;1039;-72
2022/11/12 21:57:29;;;;;;;;;;;;;;;;;;2383300;54;884;-72
2022/11/12 22:00:02;;;;;;;;;;;;;;;;;;2382840;54;1205;-72
2022/11/12 22:02:36;;;;;;;;;;;;;;;;;;2382839;62;868;-72
2022/11/12 22:05:12;;;;;;;;;;;;;;;;;;2382944;62;1065;-72
2022/11/12 22:07:45;;;;;;;;;;;;;;;;;;2382892;62;1039;-72
2022/11/12 22:10:19;;;;;;;;;;;;;;;;;;2382442;54;1207;-72
2022/11/12 22:12:53;;;;;;;;;;;;;;;;;;2378563;62;2000;-72
2022/11/12 22:15:26;;;;;;;;;;;;;;;;;;2378978;62;1043;-72
2022/11/12 22:17:59;;;;;;;;;;;;;;;;;;2378643;54;1064;-72
2022/11/12 22:20:35;;;;;;;;;;;;;;;;;;2378368;54;1199;-72
2022/11/12 22:23:08;;;;;;;;;;;;;;;;;;2378340;62;1028;-71
2022/11/12 22:25:41;;;;;;;;;;;;;;;;;;2378300;54;892;-71
2022/11/12 22:28:14;;;;;;;;;;;;;;;;;;2378696;54;1037;-71
2022/11/12 22:30:47;;;;;;;;;;;;;;;;;;2378443;62;1198;-72
2022/11/12 22:33:20;;;;;;;;;;;;;;;;;;2378337;62;1969;-71
2022/11/12 22:35:56;;;;;;;;;;;;;;;;;;2378522;62;1090;-72
2022/11/12 22:38:33;;;;;;;;;;;;;;;;;;2378501;54;846;-72
2022/11/12 22:41:08;;;;;;;;;;;;;;;;;;2378947;54;1244;-71
2022/11/12 22:43:41;;;;;;;;;;;;;;;;;;2379009;62;1055;-71
2022/11/12 22:46:15;;;;;;;;;;;;;;;;;;2379080;62;1063;-72
2022/11/12 22:48:48;;;;;;;;;;;;;;;;;;2378905;62;995;-72
2022/11/12 22:51:25;;;;;;;;;;;;;;;;;;2378315;62;1975;-72
2022/11/12 22:53:59;;;;;;;;;;;;;;;;;;2378985;62;1026;-71
2022/11/12 22:56:34;;;;;;;;;;;;;;;;;;2379091;62;1025;-72
2022/11/12 22:59:07;;;;;;;;;;;;;;;;;;2378412;62;972;-71
2022/11/12 23:01:41;;;;;;;;;;;;;;;;;;2378244;62;1223;-71
2022/11/12 23:04:14;;;;;;;;;;;;;;;;;;2378353;54;1043;-72
2022/11/12 23:06:50;;;;;;;;;;;;;;;;;;2378585;54;824;-71
2022/11/12 23:09:23;;;;;;;;;;;;;;;;;;2378452;55;963;-71
2022/11/12 23:11:59;;;;;;;;;;;;;;;;;;2384439;54;3495;-76
2022/11/12 23:15:05;;;;;;;;;;;;;;;;;;2392536;54;861;-76
2022/11/12 23:26:49;;;;;;;;;;;;;;;;;;2397588;54;2035;-75
2022/11/12 23:57:26;;;;;;;;;;;;;;;;;;2387051;54;1781;-75
